Time,TemperatureF,DewpointF,PressureIn,WindDirection,WindDirectionDegrees,WindSpeedMPH,WindSpeedGustMPH,Humidity,HourlyPrecipIn,Conditions,Clouds,dailyrainin,SoftwareType,DateUTC
2013-02-01 00:00:00,27.0,26.0,-100.00,North,-999,-999.0,-999.0,94,0.00,,,-99.99,,2013-02-01 08:00:00,
2013-02-01 01:00:00,26.0,23.0,-100.00,North,-999,-999.0,-999.0,88,0.00,,,-99.99,,2013-02-01 09:00:00,
2013-02-01 01:52:00,26.0,23.0,-100.00,North,-999,-999.0,-999.0,88,0.00,,,-99.99,,2013-02-01 09:52:00,
2013-02-01 02:00:00,25.0,22.0,-100.00,North,-999,-999.0,-999.0,87,0.00,,,-99.99,,2013-02-01 10:00:00,
2013-02-01 02:53:00,25.0,22.0,-100.00,North,-999,-999.0,-999.0,87,0.00,,,-99.99,,2013-02-01 10:53:00,
2013-02-01 03:00:00,26.0,19.0,-100.00,North,-999,-999.0,-999.0,73,0.00,,,-99.99,,2013-02-01 11:00:00,
2013-02-01 04:00:00,26.0,18.0,-100.00,North,-999,-999.0,-999.0,72,0.00,,,-99.99,,2013-02-01 12:00:00,
2013-02-01 05:00:00,26.0,16.0,-100.00,North,-999,-999.0,-999.0,66,0.00,,,-99.99,,2013-02-01 13:00:00,
2013-02-01 06:00:00,26.0,15.0,-100.00,North,-999,-999.0,-999.0,62,0.00,,,-99.99,,2013-02-01 14:00:00,
2013-02-01 07:00:00,26.0,15.0,-100.00,North,-999,-999.0,-999.0,62,0.01,,,-99.99,,2013-02-01 15:00:00,
2013-02-01 08:00:00,29.0,14.0,-100.00,North,-999,-999.0,-999.0,54,0.00,,,-99.99,,2013-02-01 16:00:00,
2013-02-01 08:52:00,29.0,14.0,-100.00,North,-999,-999.0,-999.0,54,0.00,,,-99.99,,2013-02-01 16:52:00,
2013-02-01 09:00:00,32.0,18.0,-100.00,North,-999,-999.0,-999.0,55,0.00,,,-99.99,,2013-02-01 17:00:00,
2013-02-01 10:00:00,36.0,21.0,-100.00,North,-999,-999.0,-999.0,55,0.00,,,-99.99,,2013-02-01 18:00:00,
2013-02-01 11:00:00,39.0,27.0,-100.00,North,-999,-999.0,-999.0,61,0.00,,,-99.99,,2013-02-01 19:00:00,
2013-02-01 12:00:00,39.0,31.0,-100.00,North,-999,-999.0,-999.0,72,0.00,,,-99.99,,2013-02-01 20:00:00,
2013-02-01 12:52:00,39.0,31.0,-100.00,North,-999,-999.0,-999.0,72,0.00,,,-99.99,,2013-02-01 20:52:00,
2013-02-01 13:00:00,38.0,30.0,-100.00,North,-999,-999.0,-999.0,73,0.00,,,-99.99,,2013-02-01 21:00:00,
2013-02-01 13:52:00,38.0,30.0,-100.00,North,-999,-999.0,-999.0,73,0.00,,,-99.99,,2013-02-01 21:52:00,
2013-02-01 14:00:00,40.0,29.0,-100.00,North,-999,-999.0,-999.0,64,0.00,,,-99.99,,2013-02-01 22:00:00,
2013-02-01 15:00:00,39.0,29.0,-100.00,North,-999,-999.0,-999.0,67,0.00,,,-99.99,,2013-02-01 23:00:00,
2013-02-01 15:52:00,39.0,29.0,-100.00,North,-999,-999.0,-999.0,67,0.00,,,-99.99,,2013-02-01 23:52:00,
2013-02-01 16:00:00,37.0,30.0,-100.00,North,-999,-999.0,-999.0,76,0.00,,,-99.99,,2013-02-02 00:00:00,
2013-02-01 17:00:00,34.0,24.0,-100.00,North,-999,-999.0,-999.0,66,0.00,,,-99.99,,2013-02-02 01:00:00,
2013-02-01 18:00:00,36.0,17.0,-100.00,North,-999,-999.0,-999.0,45,0.00,,,-99.99,,2013-02-02 02:00:00,
2013-02-01 18:52:00,36.0,17.0,-100.00,North,-999,-999.0,-999.0,45,0.00,,,-99.99,,2013-02-02 02:52:00,
2013-02-01 19:00:00,33.0,17.0,-100.00,North,-999,-999.0,-999.0,51,0.00,,,-99.99,,2013-02-02 03:00:00,
2013-02-01 19:52:00,33.0,17.0,-100.00,North,-999,-999.0,-999.0,51,0.00,,,-99.99,,2013-02-02 03:52:00,
2013-02-01 20:00:00,32.0,16.0,-100.00,North,-999,-999.0,-999.0,51,0.00,,,-99.99,,2013-02-02 04:00:00,
2013-02-01 21:00:00,32.0,16.0,-100.00,North,-999,-999.0,-999.0,52,0.00,,,-99.99,,2013-02-02 05:00:00,
2013-02-01 22:00:00,32.0,16.0,-100.00,North,-999,-999.0,-999.0,51,0.00,,,-99.99,,2013-02-02 06:00:00,
2013-02-01 23:00:00,32.0,16.0,-100.00,North,-999,-999.0,-999.0,52,0.00,,,-99.99,,2013-02-02 07:00:00,